Time;durP1;ratioP1;P1;durP2;ratioP2;P2;SDS_P1;SDS_P2;PMS_P1;PMS_P2;Temp;Humidity;BMP_temperature;BMP_pressure;BME280_temperature;BME280_humidity;BME280_pressure;Samples;Min_cycle;Max_cycle;Signal;HPM_P1;HPM_P2
2022/10/31 00:01:11;;;;;;;17.30;8.00;;;9.80;98.40;;;;;;5011523;28;20522;-50
2022/10/31 00:03:37;;;;;;;13.60;8.30;;;9.70;96.50;;;;;;5011348;28;20848;-50
2022/10/31 00:06:04;;;;;;;15.27;8.63;;;9.70;96.10;;;;;;5006970;28;20510;-50
2022/10/31 00:08:32;;;;;;;18.30;9.13;;;9.70;96.10;;;;;;5009020;28;20499;-50
2022/10/31 00:10:59;;;;;;;14.57;9.60;;;9.70;95.70;;;;;;5009096;28;20904;-51
2022/10/31 00:13:25;;;;;;;15.40;8.30;;;9.70;94.00;;;;;;5004468;28;20950;-51
2022/10/31 00:15:52;;;;;;;16.07;9.00;;;9.70;93.40;;;;;;5005970;28;20515;-50
2022/10/31 00:18:18;;;;;;;19.93;9.20;;;9.70;93.70;;;;;;5008234;28;20964;-50
2022/10/31 00:20:45;;;;;;;13.80;9.23;;;9.70;98.20;;;;;;5011527;28;20463;-50
2022/10/31 00:23:12;;;;;;;21.00;9.00;;;9.70;97.30;;;;;;5007734;28;21022;-50
2022/10/31 00:25:40;;;;;;;21.77;9.73;;;9.70;99.90;;;;;;5008139;28;20570;-50
2022/10/31 00:28:09;;;;;;;18.80;9.10;;;9.60;98.80;;;;;;5008963;28;20455;-50
2022/10/31 00:30:36;;;;;;;20.80;10.30;;;9.60;99.90;;;;;;5009057;28;20495;-50
2022/10/31 00:33:04;;;;;;;12.20;9.50;;;9.60;99.90;;;;;;5008412;28;20564;-51
2022/10/31 00:35:31;;;;;;;13.53;8.80;;;9.50;99.90;;;;;;5007037;28;20833;-50
2022/10/31 00:37:57;;;;;;;20.10;8.80;;;9.50;99.70;;;;;;5007550;28;20496;-50
2022/10/31 00:40:24;;;;;;;16.93;9.10;;;9.50;94.40;;;;;;5009489;28;20504;-50
2022/10/31 00:42:52;;;;;;;20.17;9.50;;;9.50;91.20;;;;;;5011931;28;20498;-50
2022/10/31 00:45:18;;;;;;;19.27;9.80;;;9.50;90.50;;;;;;5010083;28;20530;-50
2022/10/31 00:47:45;;;;;;;16.70;9.47;;;9.50;90.20;;;;;;5008749;28;20908;-50
2022/10/31 00:50:11;;;;;;;17.73;8.30;;;9.40;90.40;;;;;;5007919;28;20463;-50
2022/10/31 00:52:38;;;;;;;14.23;9.60;;;9.40;89.10;;;;;;5006787;28;20455;-50
2022/10/31 00:55:05;;;;;;;15.43;8.43;;;9.40;91.60;;;;;;5009157;28;20535;-50
2022/10/31 00:57:31;;;;;;;18.13;8.77;;;9.40;91.30;;;;;;5008029;28;20483;-50
2022/10/31 00:59:59;;;;;;;15.67;9.50;;;9.30;92.50;;;;;;5005344;28;20861;-50
2022/10/31 01:02:26;;;;;;;11.97;8.40;;;9.30;92.90;;;;;;5007207;28;20480;-50
2022/10/31 01:04:52;;;;;;;15.73;10.53;;;9.30;91.40;;;;;;5005727;28;20519;-50
2022/10/31 01:07:19;;;;;;;12.83;8.03;;;9.40;90.40;;;;;;5009856;28;20497;-49
2022/10/31 01:09:45;;;;;;;22.57;8.90;;;9.40;90.70;;;;;;5010534;28;20554;-50
2022/10/31 01:12:12;;;;;;;13.43;9.07;;;9.30;92.90;;;;;;5011403;28;20490;-53
2022/10/31 01:14:38;;;;;;;20.73;9.00;;;9.30;95.80;;;;;;5013937;28;21031;-49
2022/10/31 01:17:06;;;;;;;21.93;9.10;;;9.30;97.40;;;;;;5008339;28;20557;-51
2022/10/31 01:19:33;;;;;;;15.80;8.30;;;9.30;98.70;;;;;;5007381;28;20902;-50
2022/10/31 01:22:00;;;;;;;21.70;9.63;;;9.30;99.30;;;;;;5006633;28;20984;-50
2022/10/31 01:24:26;;;;;;;17.33;9.27;;;9.30;98.80;;;;;;5003447;28;20900;-50
2022/10/31 01:26:53;;;;;;;15.73;9.27;;;9.30;99.20;;;;;;5005866;28;20892;-50
2022/10/31 01:29:19;;;;;;;12.80;8.77;;;9.30;96.70;;;;;;5003303;28;22016;-50
2022/10/31 01:31:46;;;;;;;14.40;9.43;;;9.20;97.90;;;;;;5007899;28;20484;-50
2022/10/31 01:34:17;;;;;;;15.50;10.53;;;9.20;96.90;;;;;;5001512;28;20642;-50
2022/10/31 01:36:47;;;;;;;15.70;8.83;;;9.20;98.00;;;;;;5006292;28;20572;-50
2022/10/31 01:39:15;;;;;;;11.50;8.63;;;9.20;96.60;;;;;;5007767;28;20509;-50
2022/10/31 01:41:45;;;;;;;15.90;9.27;;;9.20;96.60;;;;;;5005350;28;20491;-50
2022/10/31 01:44:50;;;;;;;13.60;8.70;;;9.20;96.70;;;;;;5005928;28;21066;-50
2022/10/31 01:47:20;;;;;;;12.70;9.37;;;9.20;97.60;;;;;;5009409;28;20573;-50
2022/10/31 01:49:52;;;;;;;15.13;9.47;;;9.20;96.70;;;;;;5007755;28;20479;-50
2022/10/31 01:52:22;;;;;;;17.77;9.80;;;9.20;96.40;;;;;;5003082;28;20466;-49
2022/10/31 01:54:56;;;;;;;15.17;9.90;;;9.10;97.20;;;;;;5010555;28;20515;-49
2022/10/31 01:57:23;;;;;;;23.60;10.43;;;9.10;96.10;;;;;;5005782;28;20605;-50
2022/10/31 01:59:52;;;;;;;17.30;9.97;;;9.10;95.20;;;;;;5008546;28;20504;-50
2022/10/31 02:02:19;;;;;;;16.47;10.63;;;9.20;95.20;;;;;;5003860;28;20941;-50
2022/10/31 02:04:49;;;;;;;13.73;10.03;;;9.20;95.10;;;;;;5005671;28;20577;-50
2022/10/31 02:07:20;;;;;;;23.20;10.20;;;9.20;96.50;;;;;;5006242;28;20495;-49
2022/10/31 02:09:50;;;;;;;16.77;11.10;;;9.10;99.90;;;;;;5001744;28;20461;-49
2022/10/31 02:12:18;;;;;;;19.53;10.00;;;9.10;99.90;;;;;;5005040;28;20971;-50
2022/10/31 02:14:45;;;;;;;19.90;10.47;;;9.10;99.20;;;;;;5008450;28;20511;-49
2022/10/31 02:17:12;;;;;;;16.23;10.60;;;9.10;97.80;;;;;;5003976;28;20523;-50
2022/10/31 02:20:01;;;;;;;14.97;9.93;;;9.10;98.00;;;;;;5008046;28;20873;-50
2022/10/31 02:22:40;;;;;;;20.83;11.27;;;9.00;97.70;;;;;;5007395;28;20514;-49
2022/10/31 02:25:22;;;;;;;16.97;11.00;;;9.00;97.50;;;;;;5009336;28;20883;-49
2022/10/31 02:28:15;;;;;;;17.93;10.83;;;9.10;96.90;;;;;;5007565;28;20495;-50
2022/10/31 02:30:56;;;;;;;20.37;10.63;;;9.10;93.70;;;;;;5005375;28;20490;-49
2022/10/31 02:33:27;;;;;;;14.17;10.00;;;9.10;94.60;;;;;;5010798;28;20529;-49
2022/10/31 02:36:03;;;;;;;12.00;9.33;;;9.10;93.70;;;;;;5022339;28;20455;-50
2022/10/31 02:38:40;;;;;;;21.33;10.60;;;9.00;93.10;;;;;;5027650;28;20790;-50
2022/10/31 02:41:16;;;;;;;21.60;11.07;;;9.10;94.10;;;;;;5009109;28;20455;-50
2022/10/31 02:43:48;;;;;;;18.10;11.47;;;9.10;92.90;;;;;;5012111;28;20479;-50
2022/10/31 02:46:24;;;;;;;13.77;9.97;;;9.10;93.20;;;;;;5009229;28;20463;-50
2022/10/31 02:48:56;;;;;;;15.90;10.77;;;9.10;93.60;;;;;;5011367;28;20517;-50
2022/10/31 02:51:22;;;;;;;19.43;10.93;;;9.00;93.40;;;;;;5011140;28;20517;-51
2022/10/31 02:53:49;;;;;;;23.40;11.27;;;9.10;93.20;;;;;;5008681;28;20475;-50
2022/10/31 02:56:18;;;;;;;17.73;10.87;;;9.00;92.80;;;;;;5010860;28;20463;-52
2022/10/31 02:58:47;;;;;;;17.23;11.57;;;9.00;93.20;;;;;;5009467;28;20464;-50
2022/10/31 03:01:46;;;;;;;17.17;11.00;;;9.00;93.40;;;;;;5012615;28;21031;-50
2022/10/31 03:04:27;;;;;;;18.47;11.13;;;9.00;94.10;;;;;;5014457;28;20483;-54
2022/10/31 03:07:01;;;;;;;16.73;10.40;;;9.00;93.30;;;;;;5011814;28;20521;-55
2022/10/31 03:09:34;;;;;;;20.53;11.03;;;9.00;94.00;;;;;;5013900;28;20516;-50
2022/10/31 03:12:07;;;;;;;28.63;12.13;;;9.00;94.10;;;;;;5025081;28;20460;-51
2022/10/31 03:14:41;;;;;;;16.57;11.30;;;9.00;94.50;;;;;;5025129;28;20480;-50
2022/10/31 03:17:15;;;;;;;15.43;11.50;;;8.90;97.10;;;;;;5024736;28;20480;-49
2022/10/31 03:19:46;;;;;;;21.93;10.30;;;8.90;98.10;;;;;;5026072;28;20946;-50
2022/10/31 03:22:17;;;;;;;18.67;11.50;;;8.90;98.60;;;;;;5024463;28;20467;-50
2022/10/31 03:24:45;;;;;;;13.53;10.50;;;8.90;98.20;;;;;;5023731;28;20483;-54
2022/10/31 03:27:15;;;;;;;16.20;10.67;;;8.90;97.00;;;;;;5013653;28;20953;-49
2022/10/31 03:29:44;;;;;;;17.40;11.20;;;8.90;96.90;;;;;;5010404;28;20518;-50
2022/10/31 03:32:17;;;;;;;14.40;10.50;;;8.90;98.60;;;;;;5009560;28;20468;-50
2022/10/31 03:34:46;;;;;;;17.43;11.30;;;8.90;96.90;;;;;;5009100;28;20487;-50
2022/10/31 03:37:16;;;;;;;22.43;12.40;;;8.90;97.80;;;;;;5007803;28;20491;-54
2022/10/31 03:39:45;;;;;;;18.50;12.07;;;8.90;96.80;;;;;;5004772;28;20468;-52
2022/10/31 03:42:16;;;;;;;19.87;11.77;;;8.90;97.20;;;;;;5016106;28;20464;-54
2022/10/31 03:44:47;;;;;;;23.80;13.03;;;8.90;96.10;;;;;;5013505;28;20569;-54
2022/10/31 03:47:15;;;;;;;17.40;12.03;;;9.00;96.30;;;;;;5006691;28;20464;-55
2022/10/31 03:49:42;;;;;;;19.40;13.00;;;9.00;95.30;;;;;;5010389;28;21027;-55
2022/10/31 03:52:20;;;;;;;19.93;12.30;;;9.00;95.10;;;;;;5008416;28;20460;-55
2022/10/31 03:54:53;;;;;;;19.70;11.70;;;9.00;94.10;;;;;;5006263;28;20491;-57
2022/10/31 03:57:25;;;;;;;21.03;12.17;;;9.00;94.70;;;;;;5018901;28;20494;-55
2022/10/31 03:59:55;;;;;;;21.00;12.10;;;8.90;94.90;;;;;;5006727;28;20471;-55
2022/10/31 04:02:28;;;;;;;23.57;13.90;;;8.90;96.10;;;;;;5005705;28;20514;-57
2022/10/31 04:04:55;;;;;;;17.00;12.10;;;9.00;94.60;;;;;;5001795;28;21074;-54
2022/10/31 04:07:26;;;;;;;24.00;13.47;;;9.00;94.20;;;;;;5005058;28;20614;-55
2022/10/31 04:09:54;;;;;;;30.27;15.30;;;9.00;93.80;;;;;;5010045;28;20463;-54
2022/10/31 04:12:22;;;;;;;23.90;14.57;;;9.00;93.20;;;;;;5011694;28;20459;-55
2022/10/31 04:14:51;;;;;;;18.93;13.30;;;9.00;93.30;;;;;;5011651;28;20506;-55
2022/10/31 04:17:21;;;;;;;19.10;12.63;;;9.00;92.80;;;;;;5008192;28;20484;-54
2022/10/31 04:19:49;;;;;;;23.90;14.60;;;9.00;93.70;;;;;;5008952;28;20464;-54
2022/10/31 04:22:16;;;;;;;23.37;13.20;;;9.00;95.00;;;;;;5010592;28;20468;-54
2022/10/31 04:24:43;;;;;;;19.87;13.50;;;8.90;94.60;;;;;;5008855;28;20491;-54
2022/10/31 04:27:09;;;;;;;19.03;12.83;;;8.90;93.30;;;;;;5009777;28;20467;-55
2022/10/31 04:29:36;;;;;;;19.10;12.53;;;8.90;93.90;;;;;;5008300;28;20460;-54
2022/10/31 04:32:02;;;;;;;20.50;12.97;;;8.90;95.20;;;;;;5010141;28;20584;-56
2022/10/31 04:34:29;;;;;;;19.17;12.40;;;8.90;94.20;;;;;;5009263;28;20987;-55
2022/10/31 04:36:57;;;;;;;24.70;15.10;;;8.90;93.20;;;;;;5007580;28;20459;-55
2022/10/31 04:39:24;;;;;;;18.27;13.13;;;8.90;94.20;;;;;;5007498;28;20494;-54
2022/10/31 04:41:50;;;;;;;17.53;13.00;;;8.90;93.80;;;;;;5006440;28;20464;-54
2022/10/31 04:44:17;;;;;;;26.37;13.40;;;8.90;93.30;;;;;;5012210;28;20518;-55
2022/10/31 04:46:44;;;;;;;21.87;14.00;;;8.80;93.50;;;;;;5009679;28;20459;-54
2022/10/31 04:49:11;;;;;;;20.23;13.20;;;8.80;92.70;;;;;;5010177;28;20463;-54
2022/10/31 04:51:37;;;;;;;21.23;13.40;;;8.90;92.30;;;;;;5010793;28;20514;-55
2022/10/31 04:54:05;;;;;;;22.50;14.67;;;8.80;92.90;;;;;;5011379;28;20479;-54
2022/10/31 04:56:32;;;;;;;19.20;13.30;;;8.90;94.50;;;;;;5010736;28;20490;-54
2022/10/31 04:58:59;;;;;;;20.67;14.03;;;8.80;94.50;;;;;;5008043;28;20541;-54
2022/10/31 05:01:25;;;;;;;18.60;12.90;;;8.80;94.30;;;;;;5008828;28;20459;-55
2022/10/31 05:03:52;;;;;;;20.80;14.47;;;8.80;93.50;;;;;;5006885;28;20491;-54
2022/10/31 05:06:18;;;;;;;21.77;14.43;;;8.80;93.50;;;;;;5005823;28;20978;-55
2022/10/31 05:08:45;;;;;;;21.83;14.40;;;8.80;93.60;;;;;;5004510;28;20472;-54
2022/10/31 05:11:13;;;;;;;20.23;15.00;;;8.80;92.30;;;;;;5008989;28;20522;-55
2022/10/31 05:13:39;;;;;;;21.00;14.30;;;8.80;93.00;;;;;;5011181;28;20455;-55
2022/10/31 05:16:07;;;;;;;20.80;14.30;;;8.80;93.60;;;;;;5007979;28;20460;-54
2022/10/31 05:18:33;;;;;;;20.03;13.10;;;8.80;95.00;;;;;;5007459;28;20511;-54
2022/10/31 05:21:00;;;;;;;20.03;15.47;;;8.80;95.00;;;;;;5009069;28;20517;-55
2022/10/31 05:23:27;;;;;;;21.60;13.20;;;8.80;95.00;;;;;;5002726;28;20461;-55
2022/10/31 05:25:53;;;;;;;23.43;13.47;;;8.80;95.40;;;;;;5008758;28;20464;-55
2022/10/31 05:28:21;;;;;;;17.23;13.40;;;8.80;94.50;;;;;;5010580;28;20463;-54
2022/10/31 05:30:48;;;;;;;25.77;14.70;;;8.80;93.90;;;;;;5002378;28;20514;-55
2022/10/31 05:33:14;;;;;;;18.40;13.40;;;8.80;93.70;;;;;;5009192;28;20960;-54
2022/10/31 05:35:41;;;;;;;26.73;16.33;;;8.80;93.00;;;;;;5006918;28;20483;-55
2022/10/31 05:38:08;;;;;;;17.77;13.33;;;8.80;93.50;;;;;;5008063;28;20516;-54
2022/10/31 05:40:34;;;;;;;30.10;14.63;;;8.80;93.80;;;;;;5002277;28;20514;-54
2022/10/31 05:43:01;;;;;;;25.17;13.17;;;8.80;94.60;;;;;;5007631;28;20514;-55
2022/10/31 05:45:29;;;;;;;30.63;13.70;;;8.80;92.60;;;;;;5005781;28;20499;-54
2022/10/31 05:47:57;;;;;;;17.63;13.07;;;8.80;91.50;;;;;;5008601;28;20502;-54
2022/10/31 05:50:25;;;;;;;21.57;13.53;;;8.80;90.70;;;;;;5006072;28;20476;-54
2022/10/31 05:52:56;;;;;;;22.80;13.73;;;8.80;90.40;;;;;;5004878;28;20868;-54
2022/10/31 05:55:23;;;;;;;28.13;16.23;;;8.90;89.60;;;;;;5005287;28;20479;-54
2022/10/31 05:57:49;;;;;;;34.80;14.80;;;8.90;87.80;;;;;;5008516;28;20475;-55
2022/10/31 06:00:16;;;;;;;27.17;14.27;;;8.90;87.00;;;;;;5009123;28;20464;-54
2022/10/31 06:02:44;;;;;;;22.63;13.70;;;9.00;87.70;;;;;;5008532;28;20534;-55
2022/10/31 06:05:11;;;;;;;22.73;13.67;;;9.00;86.30;;;;;;5005476;28;20537;-54
2022/10/31 06:07:37;;;;;;;21.60;14.00;;;9.00;86.40;;;;;;5009074;28;20454;-54
2022/10/31 06:10:06;;;;;;;20.23;13.03;;;9.00;85.70;;;;;;5003434;28;20472;-54
2022/10/31 06:12:37;;;;;;;14.30;12.80;;;9.00;84.70;;;;;;5011452;28;20463;-55
2022/10/31 06:15:04;;;;;;;18.87;12.53;;;9.10;83.80;;;;;;5002893;28;20852;-53
2022/10/31 06:17:31;;;;;;;16.20;12.70;;;9.10;83.80;;;;;;5005819;28;20486;-53
2022/10/31 06:19:59;;;;;;;20.23;12.93;;;9.10;86.10;;;;;;5002241;28;20601;-54
2022/10/31 06:22:25;;;;;;;16.92;11.48;;;9.20;88.50;;;;;;5003252;28;20463;-54
2022/10/31 06:24:52;;;;;;;16.83;12.90;;;9.10;89.90;;;;;;5001783;28;20255;-54
2022/10/31 06:27:19;;;;;;;21.80;12.67;;;9.10;89.50;;;;;;5005018;28;21023;-55
2022/10/31 06:29:46;;;;;;;17.47;13.00;;;9.10;87.60;;;;;;5008966;28;20454;-54
2022/10/31 06:32:13;;;;;;;16.70;12.63;;;9.20;86.00;;;;;;5005928;28;20473;-55
2022/10/31 06:34:40;;;;;;;17.87;12.83;;;9.20;87.90;;;;;;5007234;28;20483;-54
2022/10/31 06:37:09;;;;;;;15.50;12.13;;;9.30;88.20;;;;;;5008987;28;20870;-55
2022/10/31 06:39:36;;;;;;;21.13;12.33;;;9.30;88.80;;;;;;5007547;28;20515;-54
2022/10/31 06:42:03;;;;;;;22.70;12.90;;;9.40;88.70;;;;;;5007657;28;20521;-54
2022/10/31 06:44:29;;;;;;;25.13;12.50;;;9.40;88.40;;;;;;5006821;28;21071;-54
2022/10/31 06:46:56;;;;;;;18.10;12.30;;;9.50;87.50;;;;;;5004320;28;20464;-55
2022/10/31 06:49:23;;;;;;;22.53;13.47;;;9.50;86.00;;;;;;5002947;28;20456;-55
2022/10/31 06:51:50;;;;;;;15.63;12.13;;;9.60;85.40;;;;;;5002772;28;20995;-56
2022/10/31 06:54:18;;;;;;;18.30;13.13;;;9.70;82.10;;;;;;5004950;28;20491;-55
2022/10/31 06:56:46;;;;;;;18.57;12.30;;;9.80;82.50;;;;;;5005287;28;20459;-56
2022/10/31 06:59:13;;;;;;;21.57;12.80;;;9.90;81.50;;;;;;5007114;28;20538;-55
2022/10/31 07:01:40;;;;;;;19.53;12.97;;;10.00;80.40;;;;;;5007370;28;20459;-55
2022/10/31 07:04:06;;;;;;;17.17;12.50;;;10.10;77.80;;;;;;5001042;28;20491;-56
2022/10/31 07:06:33;;;;;;;21.37;13.30;;;10.30;76.50;;;;;;5007013;28;20464;-56
2022/10/31 07:08:59;;;;;;;22.40;12.60;;;10.50;76.70;;;;;;5003645;28;20505;-55
2022/10/31 07:11:27;;;;;;;16.83;13.50;;;10.80;78.70;;;;;;5003532;28;20463;-56
2022/10/31 07:13:54;;;;;;;20.60;12.77;;;10.90;88.40;;;;;;5003921;28;20485;-56
2022/10/31 07:16:20;;;;;;;19.63;13.40;;;11.10;92.70;;;;;;5005947;28;20513;-56
2022/10/31 07:18:47;;;;;;;20.97;13.13;;;11.40;99.90;;;;;;5005009;28;20996;-55
2022/10/31 07:21:14;;;;;;;22.83;15.47;;;11.70;99.90;;;;;;5005918;28;20511;-55
2022/10/31 07:23:40;;;;;;;15.60;13.10;;;12.00;99.90;;;;;;5006248;28;20957;-55
2022/10/31 07:26:08;;;;;;;23.13;14.70;;;12.20;99.90;;;;;;5008747;28;20486;-56
2022/10/31 07:28:36;;;;;;;23.73;13.63;;;12.60;99.90;;;;;;5006701;28;20464;-56
2022/10/31 07:31:03;;;;;;;17.70;14.10;;;12.70;99.90;;;;;;5002564;28;20464;-58
2022/10/31 07:33:29;;;;;;;22.87;14.00;;;12.90;99.90;;;;;;5008106;28;20880;-57
2022/10/31 07:35:56;;;;;;;23.10;13.00;;;13.10;99.90;;;;;;5011612;28;20514;-56
2022/10/31 07:38:23;;;;;;;23.00;13.10;;;13.10;99.90;;;;;;5001716;28;20581;-56
2022/10/31 07:40:52;;;;;;;26.30;13.43;;;12.80;99.90;;;;;;5008980;28;20464;-50
2022/10/31 07:43:19;;;;;;;21.07;12.90;;;12.70;99.90;;;;;;5011401;28;20934;-49
2022/10/31 07:45:52;;;;;;;16.97;13.17;;;12.50;99.90;;;;;;5008070;28;20483;-50
2022/10/31 07:48:18;;;;;;;18.47;12.00;;;12.40;99.90;;;;;;5007069;28;20462;-50
2022/10/31 07:50:45;;;;;;;20.10;12.90;;;12.30;99.90;;;;;;5006673;28;20448;-52
2022/10/31 07:53:13;;;;;;;24.03;12.20;;;12.20;99.90;;;;;;5008964;28;20507;-51
2022/10/31 07:55:40;;;;;;;18.13;12.70;;;12.00;99.90;;;;;;5012056;28;20996;-52
2022/10/31 07:58:08;;;;;;;19.17;13.13;;;12.00;99.90;;;;;;5010361;28;20529;-52
2022/10/31 08:00:36;;;;;;;15.60;12.07;;;11.90;99.90;;;;;;5008160;28;20868;-53
2022/10/31 08:03:06;;;;;;;24.57;12.93;;;11.80;99.90;;;;;;5011640;28;20537;-52
2022/10/31 08:05:34;;;;;;;21.33;11.83;;;11.80;99.90;;;;;;5009316;28;20571;-52
2022/10/31 08:08:01;;;;;;;18.07;12.80;;;11.80;99.90;;;;;;5008197;28;20537;-52
2022/10/31 08:10:28;;;;;;;26.43;13.93;;;11.80;99.90;;;;;;5008164;28;21076;-53
2022/10/31 08:12:58;;;;;;;25.87;14.03;;;12.10;99.90;;;;;;5010731;28;20518;-53
2022/10/31 08:15:26;;;;;;;24.23;14.37;;;12.30;99.90;;;;;;5007669;28;20491;-53
2022/10/31 08:17:53;;;;;;;22.53;13.50;;;12.50;99.90;;;;;;5010573;28;20510;-52
2022/10/31 08:20:21;;;;;;;20.77;12.70;;;12.70;99.90;;;;;;5010386;28;21008;-51
2022/10/31 08:22:59;;;;;;;27.57;13.13;;;12.80;99.90;;;;;;5011430;28;20506;-52
2022/10/31 08:25:26;;;;;;;21.57;14.73;;;12.80;99.90;;;;;;5009445;28;21032;-52
2022/10/31 08:27:54;;;;;;;26.07;16.43;;;12.70;99.90;;;;;;5011631;28;20460;-55
2022/10/31 08:30:22;;;;;;;24.20;14.23;;;12.70;99.90;;;;;;5011729;28;20534;-52
2022/10/31 08:32:58;;;;;;;35.00;16.23;;;12.70;99.90;;;;;;5005305;28;20455;-53
2022/10/31 08:35:26;;;;;;;22.77;13.97;;;12.70;99.90;;;;;;5012435;28;21047;-53
2022/10/31 08:37:54;;;;;;;30.43;14.57;;;12.70;99.90;;;;;;5014084;28;20470;-55
2022/10/31 08:40:21;;;;;;;21.83;15.17;;;13.00;99.90;;;;;;5006588;28;20487;-52
2022/10/31 08:42:47;;;;;;;20.97;13.97;;;13.60;99.90;;;;;;5011029;28;21333;-52
2022/10/31 08:45:14;;;;;;;23.00;13.97;;;14.10;99.90;;;;;;5005979;28;20494;-52
2022/10/31 08:47:41;;;;;;;20.10;14.87;;;14.50;44.60;;;;;;5009075;28;20455;-52
2022/10/31 08:50:08;;;;;;;24.97;14.17;;;14.80;53.90;;;;;;5005076;28;20459;-52
2022/10/31 08:52:36;;;;;;;17.10;13.33;;;15.40;85.50;;;;;;5007799;28;22356;-51
2022/10/31 08:55:02;;;;;;;22.90;16.20;;;16.00;99.90;;;;;;5009871;28;20478;-52
2022/10/31 08:57:29;;;;;;;27.10;14.80;;;16.50;99.90;;;;;;5006834;28;20879;-52
2022/10/31 08:59:55;;;;;;;22.23;14.60;;;16.50;99.90;;;;;;5005222;28;20548;-52
2022/10/31 09:02:22;;;;;;;23.30;15.10;;;16.70;99.90;;;;;;5006181;28;20506;-51
2022/10/31 09:04:49;;;;;;;24.83;15.87;;;16.80;99.90;;;;;;5005711;28;20555;-52
2022/10/31 09:07:15;;;;;;;25.57;15.70;;;16.60;99.90;;;;;;5006076;28;20468;-52
2022/10/31 09:09:43;;;;;;;22.40;14.93;;;16.50;99.90;;;;;;5004256;28;21205;-53
2022/10/31 09:12:10;;;;;;;25.40;15.47;;;16.20;99.90;;;;;;5010693;28;20534;-52
2022/10/31 09:14:36;;;;;;;20.10;15.10;;;16.30;99.90;;;;;;5006992;28;20479;-53
2022/10/31 09:17:03;;;;;;;25.30;16.03;;;16.50;99.90;;;;;;5005277;28;20506;-55
2022/10/31 09:19:30;;;;;;;31.07;15.70;;;16.40;99.90;;;;;;4996846;28;20542;-53
2022/10/31 09:21:56;;;;;;;24.40;14.80;;;16.20;99.90;;;;;;5006429;28;20542;-53
2022/10/31 09:24:23;;;;;;;32.70;17.47;;;16.00;99.90;;;;;;5005859;28;21005;-53
2022/10/31 09:26:51;;;;;;;27.10;15.80;;;15.80;99.90;;;;;;5001798;28;20463;-52
2022/10/31 09:29:17;;;;;;;27.20;17.43;;;15.80;99.90;;;;;;5008287;28;20602;-52
2022/10/31 09:31:44;;;;;;;30.23;18.13;;;15.90;99.90;;;;;;5005162;28;20949;-52
2022/10/31 09:34:10;;;;;;;40.10;17.90;;;16.00;99.90;;;;;;5010241;28;20484;-52
2022/10/31 09:36:38;;;;;;;28.83;17.43;;;16.30;99.90;;;;;;5007222;28;20468;-53
2022/10/31 09:39:04;;;;;;;25.80;17.77;;;16.60;99.90;;;;;;5005167;28;20480;-53
2022/10/31 09:41:44;;;;;;;30.17;16.90;;;16.30;99.90;;;;;;5003326;28;20459;-52
2022/10/31 09:44:21;;;;;;;32.17;17.47;;;16.40;99.90;;;;;;5012136;28;20496;-53
2022/10/31 09:46:56;;;;;;;27.43;15.83;;;16.70;99.90;;;;;;5007656;28;20459;-52
2022/10/31 09:49:42;;;;;;;27.80;16.43;;;17.40;99.90;;;;;;5004364;28;20512;-52
2022/10/31 09:52:17;;;;;;;28.67;17.00;;;18.40;99.90;;;;;;5007601;28;20467;-53
2022/10/31 09:54:48;;;;;;;26.67;17.07;;;17.80;99.90;;;;;;5012347;28;20474;-52
2022/10/31 09:57:20;;;;;;;31.90;18.40;;;17.50;99.90;;;;;;5008849;28;20459;-54
2022/10/31 09:59:50;;;;;;;30.30;18.30;;;17.00;99.90;;;;;;5027969;23;21332;-53
2022/10/31 10:02:22;;;;;;;40.83;15.90;;;17.40;99.90;;;;;;5020450;28;20479;-54
2022/10/31 10:04:54;;;;;;;27.20;16.47;;;18.20;99.90;;;;;;5023202;28;20467;-54
2022/10/31 10:07:30;;;;;;;22.93;16.30;;;18.40;99.90;;;;;;5016708;28;20470;-54
2022/10/31 10:09:57;;;;;;;30.93;17.90;;;17.70;99.90;;;;;;5015174;28;20474;-53
2022/10/31 10:12:39;;;;;;;25.37;17.00;;;17.50;99.90;;;;;;5017615;28;20459;-53
2022/10/31 10:15:26;;;;;;;31.80;18.00;;;17.50;99.90;;;;;;5013472;28;20494;-54
2022/10/31 10:18:03;;;;;;;27.37;18.27;;;18.10;99.90;;;;;;5017515;28;20458;-53
2022/10/31 10:20:35;;;;;;;31.37;19.70;;;17.90;99.90;;;;;;5020415;28;20486;-52
2022/10/31 10:23:18;;;;;;;27.47;18.70;;;17.70;1.40;;;;;;5026034;28;20538;-53
2022/10/31 10:25:48;;;;;;;28.73;16.77;;;18.30;99.90;;;;;;5027778;28;20471;-52
2022/10/31 10:28:22;;;;;;;33.53;17.90;;;17.90;99.90;;;;;;5021874;28;20517;-52
2022/10/31 10:30:54;;;;;;;29.33;18.00;;;17.50;99.90;;;;;;5018813;28;20463;-53
2022/10/31 10:33:25;;;;;;;28.23;18.37;;;17.50;99.90;;;;;;5027325;28;20462;-53
2022/10/31 10:35:54;;;;;;;31.13;18.50;;;17.40;99.90;;;;;;5018646;28;20460;-51
2022/10/31 10:38:27;;;;;;;33.00;19.27;;;17.50;99.90;;;;;;5023774;28;20517;-52
2022/10/31 10:40:54;;;;;;;33.23;18.70;;;17.90;99.90;;;;;;5014532;28;20513;-52
2022/10/31 10:43:25;;;;;;;36.30;20.30;;;17.90;99.90;;;;;;5022124;28;20458;-51
2022/10/31 10:48:55;;;;;;;26.03;17.80;;;17.50;99.90;;;;;;5015328;28;20474;-54
2022/10/31 10:51:24;;;;;;;54.60;31.57;;;17.40;99.90;;;;;;5026085;28;20469;-54
2022/10/31 10:54:14;;;;;;;38.07;20.03;;;17.60;99.90;;;;;;5024376;28;20467;-53
2022/10/31 10:56:48;;;;;;;35.13;21.80;;;18.00;99.90;;;;;;5030454;28;20561;-52
2022/10/31 10:59:20;;;;;;;32.00;18.73;;;17.80;99.90;;;;;;5028783;28;21167;-52
2022/10/31 11:01:51;;;;;;;30.37;19.17;;;17.80;99.90;;;;;;5033487;28;20427;-60
2022/10/31 11:04:30;;;;;;;32.47;20.63;;;18.00;99.90;;;;;;5025321;28;20477;-51
2022/10/31 11:07:02;;;;;;;33.70;18.37;;;17.90;99.90;;;;;;5023087;28;20528;-52
2022/10/31 11:09:29;;;;;;;26.70;19.33;;;18.00;99.90;;;;;;5021146;28;20476;-52
2022/10/31 11:11:57;;;;;;;31.77;19.00;;;18.70;99.90;;;;;;5020555;28;20485;-51
2022/10/31 11:14:23;;;;;;;41.43;19.33;;;18.90;99.90;;;;;;5022964;28;20455;-51
2022/10/31 11:16:54;;;;;;;46.97;19.50;;;18.50;99.90;;;;;;5024798;28;20463;-50
2022/10/31 11:19:25;;;;;;;28.83;17.50;;;19.10;99.90;;;;;;5023331;28;20891;-51
2022/10/31 11:21:51;;;;;;;38.23;18.47;;;19.30;99.90;;;;;;5023573;28;20459;-51
2022/10/31 11:24:20;;;;;;;32.20;17.97;;;19.50;99.90;;;;;;5020607;28;20524;-51
2022/10/31 11:26:49;;;;;;;29.73;20.57;;;18.80;99.90;;;;;;5021276;28;20504;-51
2022/10/31 11:29:20;;;;;;;31.30;19.20;;;18.40;99.90;;;;;;5026647;28;20531;-50
2022/10/31 11:31:48;;;;;;;30.60;19.83;;;18.40;99.90;;;;;;5022081;28;20459;-54
2022/10/31 11:34:28;;;;;;;27.97;18.90;;;18.10;99.90;;;;;;5030959;28;20493;-53
2022/10/31 11:36:59;;;;;;;28.80;18.63;;;18.00;99.90;;;;;;5031024;28;20462;-52
2022/10/31 11:39:26;;;;;;;32.40;19.87;;;18.10;99.90;;;;;;5033903;28;20548;-53
2022/10/31 11:41:54;;;;;;;28.37;19.10;;;18.00;99.90;;;;;;5030052;28;20463;-52
2022/10/31 11:44:24;;;;;;;30.40;19.77;;;18.00;99.90;;;;;;5035069;28;20504;-51
2022/10/31 11:46:53;;;;;;;26.37;18.73;;;18.10;99.90;;;;;;5031989;28;20459;-52
2022/10/31 11:49:27;;;;;;;40.27;20.40;;;18.00;99.90;;;;;;5026504;28;20487;-51
2022/10/31 11:51:58;;;;;;;33.77;20.87;;;18.10;99.90;;;;;;5024995;28;20520;-52
2022/10/31 11:54:28;;;;;;;31.73;19.97;;;18.00;99.90;;;;;;5029589;28;20454;-52
2022/10/31 11:56:55;;;;;;;25.73;19.60;;;18.20;99.90;;;;;;5030848;28;20467;-52
2022/10/31 11:59:26;;;;;;;27.40;19.13;;;18.20;99.90;;;;;;5026440;28;20551;-51
2022/10/31 12:01:55;;;;;;;31.13;20.43;;;18.40;99.90;;;;;;5024081;28;20508;-51
2022/10/31 12:04:31;;;;;;;32.23;19.23;;;18.50;99.90;;;;;;5028607;28;20971;-52
2022/10/31 12:06:58;;;;;;;29.20;20.30;;;18.50;99.90;;;;;;5024587;28;20462;-52
2022/10/31 12:09:29;;;;;;;29.63;20.53;;;18.30;99.90;;;;;;5027679;28;21058;-53
2022/10/31 12:12:14;;;;;;;31.97;19.50;;;18.20;99.90;;;;;;5034831;28;20462;-53
2022/10/31 12:14:51;;;;;;;36.00;20.90;;;18.40;99.90;;;;;;5034678;28;20470;-53
2022/10/31 12:17:24;;;;;;;32.57;20.30;;;18.50;99.90;;;;;;5028247;28;20459;-53
2022/10/31 12:20:03;;;;;;;33.00;20.50;;;18.50;99.90;;;;;;5025354;28;20493;-52
2022/10/31 12:22:37;;;;;;;30.40;20.40;;;18.40;99.90;;;;;;5031234;28;21034;-53
2022/10/31 12:25:28;;;;;;;32.17;21.43;;;18.40;99.90;;;;;;5032608;28;20526;-52
2022/10/31 12:28:09;;;;;;;28.83;20.37;;;18.20;99.90;;;;;;5036384;28;20508;-52
2022/10/31 12:30:50;;;;;;;37.27;21.90;;;18.20;99.90;;;;;;5027438;28;20535;-53
2022/10/31 12:33:28;;;;;;;30.83;21.83;;;18.20;99.90;;;;;;5027929;28;20459;-52
2022/10/31 12:36:09;;;;;;;37.30;22.60;;;18.30;99.90;;;;;;5019997;28;20464;-53
2022/10/31 12:38:52;;;;;;;32.07;23.70;;;18.10;99.90;;;;;;5030918;28;20504;-51
2022/10/31 12:41:33;;;;;;;44.57;24.40;;;18.40;99.90;;;;;;5025685;28;21019;-51
2022/10/31 12:44:06;;;;;;;40.03;24.93;;;18.30;99.90;;;;;;5028936;28;20521;-53
2022/10/31 12:46:57;;;;;;;41.80;27.77;;;18.30;99.90;;;;;;5029015;28;20466;-51
2022/10/31 12:49:42;;;;;;;47.60;28.93;;;18.10;99.90;;;;;;5020609;28;20884;-53